TAM9384 SBCF-SLVR
Flight info
| Callsign | TAM9384 |
|---|---|
| Flight time | 2h 48m |
| Altitude | 34000 |
| Route | MIMIP UL795 MOPIM UZ8 ENSUK UL201 ESUMU UM668 EROGI UL540 OGSIB |
| Aircraft | A321/M-SDE3FGHIRWY/LB1 |
Departure
| Time | 2026-04-28 20:25 |
|---|---|
| Airport | Tancredo Neves International Airport (SBCF) |
Arrival
| Time | 2026-04-28 23:14 |
|---|---|
| Airport | Viru Viru International Airport (SLVR) |
| Time | Latitude | Longitude | Altitude | Speed | Heading |
|---|---|---|---|---|---|
| 2026-04-28 19:55 | -19.63321 | -43.96405 | 2820 ft | 0 kts | 47° |
| 2026-04-28 20:14 | -19.63321 | -43.96406 | 2815 ft | 1 kts | 47° |
| 2026-04-28 20:14 | -19.63338 | -43.96422 | 2814 ft | 4 kts | 27° |
| 2026-04-28 20:14 | -19.63362 | -43.96428 | 2835 ft | 4 kts | 341° |
| 2026-04-28 20:15 | -19.63373 | -43.96422 | 2835 ft | 0 kts | 316° |
| 2026-04-28 20:18 | -19.63370 | -43.96426 | 2835 ft | 5 kts | 311° |
| 2026-04-28 20:19 | -19.63343 | -43.96473 | 2835 ft | 8 kts | 305° |
| 2026-04-28 20:19 | -19.63300 | -43.96515 | 2835 ft | 9 kts | 321° |
| 2026-04-28 20:19 | -19.63247 | -43.96563 | 2835 ft | 11 kts | 321° |
| 2026-04-28 20:19 | -19.63182 | -43.96620 | 2835 ft | 13 kts | 319° |
| 2026-04-28 20:20 | -19.63113 | -43.96685 | 2835 ft | 13 kts | 319° |
| 2026-04-28 20:20 | -19.63042 | -43.96749 | 2835 ft | 14 kts | 319° |
| 2026-04-28 20:20 | -19.62967 | -43.96816 | 2835 ft | 14 kts | 320° |
| 2026-04-28 20:20 | -19.62891 | -43.96885 | 2835 ft | 15 kts | 320° |
| 2026-04-28 20:21 | -19.62811 | -43.96957 | 2836 ft | 15 kts | 315° |
| 2026-04-28 20:21 | -19.62799 | -43.97053 | 2836 ft | 14 kts | 236° |
| 2026-04-28 20:21 | -19.62829 | -43.97142 | 2839 ft | 13 kts | 295° |
| 2026-04-28 20:21 | -19.62762 | -43.97212 | 2836 ft | 14 kts | 316° |
| 2026-04-28 20:22 | -19.62689 | -43.97281 | 2836 ft | 14 kts | 319° |
| 2026-04-28 20:22 | -19.62613 | -43.97351 | 2836 ft | 15 kts | 317° |
| 2026-04-28 20:22 | -19.62533 | -43.97425 | 2835 ft | 15 kts | 319° |
| 2026-04-28 20:22 | -19.62451 | -43.97500 | 2835 ft | 16 kts | 319° |
| 2026-04-28 20:23 | -19.62368 | -43.97578 | 2835 ft | 16 kts | 318° |
| 2026-04-28 20:23 | -19.62291 | -43.97664 | 2836 ft | 16 kts | 290° |
| 2026-04-28 20:23 | -19.62304 | -43.97716 | 2838 ft | 0 kts | 236° |
| 2026-04-28 20:23 | -19.62305 | -43.97718 | 2837 ft | 1 kts | 235° |
| 2026-04-28 20:24 | -19.62313 | -43.97729 | 2835 ft | 5 kts | 233° |
| 2026-04-28 20:24 | -19.62403 | -43.97756 | 2834 ft | 31 kts | 157° |
| 2026-04-28 20:24 | -19.62762 | -43.97441 | 2835 ft | 101 kts | 138° |
| 2026-04-28 20:24 | -19.63436 | -43.96814 | 2835 ft | 155 kts | 139° |
| 2026-04-28 20:25 | -19.64343 | -43.95977 | 3178 ft | 178 kts | 138° |
| 2026-04-28 20:25 | -19.65271 | -43.95117 | 3884 ft | 177 kts | 136° |
| 2026-04-28 20:25 | -19.66197 | -43.94218 | 4397 ft | 188 kts | 136° |
| 2026-04-28 20:25 | -19.67245 | -43.93241 | 4664 ft | 211 kts | 137° |
| 2026-04-28 20:26 | -19.68377 | -43.92201 | 4882 ft | 223 kts | 138° |
| 2026-04-28 20:26 | -19.69623 | -43.91168 | 5160 ft | 229 kts | 152° |
| 2026-04-28 20:26 | -19.71210 | -43.90939 | 5567 ft | 238 kts | 193° |
| 2026-04-28 20:26 | -19.72608 | -43.91835 | 6080 ft | 242 kts | 227° |
| 2026-04-28 20:27 | -19.73576 | -43.93308 | 6571 ft | 245 kts | 239° |
| 2026-04-28 20:27 | -19.74377 | -43.94907 | 7088 ft | 246 kts | 242° |
| 2026-04-28 20:27 | -19.75117 | -43.96568 | 7555 ft | 249 kts | 252° |
| 2026-04-28 20:27 | -19.75413 | -43.98381 | 7931 ft | 260 kts | 268° |
| 2026-04-28 20:28 | -19.75216 | -44.00361 | 8060 ft | 280 kts | 285° |
| 2026-04-28 20:28 | -19.74722 | -44.02409 | 8324 ft | 294 kts | 285° |
| 2026-04-28 20:28 | -19.74201 | -44.04533 | 8879 ft | 299 kts | 285° |
| 2026-04-28 20:28 | -19.73668 | -44.06679 | 9422 ft | 301 kts | 285° |
| 2026-04-28 20:29 | -19.73127 | -44.08843 | 9997 ft | 305 kts | 285° |
| 2026-04-28 20:29 | -19.72564 | -44.11086 | 10166 ft | 325 kts | 285° |
| 2026-04-28 20:29 | -19.71963 | -44.13477 | 10360 ft | 341 kts | 285° |
| 2026-04-28 20:29 | -19.71350 | -44.15929 | 10604 ft | 355 kts | 285° |
| 2026-04-28 20:30 | -19.70702 | -44.18513 | 10887 ft | 366 kts | 285° |
| 2026-04-28 20:30 | -19.70039 | -44.21162 | 11208 ft | 376 kts | 285° |
| 2026-04-28 20:30 | -19.69357 | -44.23888 | 11579 ft | 383 kts | 285° |
| 2026-04-28 20:30 | -19.68677 | -44.26608 | 12091 ft | 386 kts | 285° |
| 2026-04-28 20:31 | -19.67982 | -44.29380 | 12628 ft | 387 kts | 285° |
| 2026-04-28 20:31 | -19.67286 | -44.32148 | 13139 ft | 389 kts | 286° |
| 2026-04-28 20:31 | -19.66586 | -44.34935 | 13617 ft | 391 kts | 286° |
| 2026-04-28 20:31 | -19.65884 | -44.37727 | 14060 ft | 393 kts | 286° |
| 2026-04-28 20:32 | -19.65179 | -44.40541 | 14471 ft | 395 kts | 286° |
| 2026-04-28 20:32 | -19.64472 | -44.43359 | 14870 ft | 397 kts | 286° |
| 2026-04-28 20:32 | -19.63759 | -44.46194 | 15273 ft | 399 kts | 286° |
| 2026-04-28 20:32 | -19.63041 | -44.49047 | 15691 ft | 401 kts | 286° |
| 2026-04-28 20:33 | -19.62329 | -44.51866 | 16117 ft | 402 kts | 287° |
| 2026-04-28 20:33 | -19.61594 | -44.54775 | 16543 ft | 404 kts | 287° |
| 2026-04-28 20:33 | -19.60864 | -44.57656 | 16963 ft | 406 kts | 287° |
| 2026-04-28 20:33 | -19.60130 | -44.60555 | 17373 ft | 408 kts | 287° |
| 2026-04-28 20:34 | -19.59406 | -44.63426 | 17775 ft | 410 kts | 287° |
| 2026-04-28 20:34 | -19.58659 | -44.66397 | 18181 ft | 412 kts | 287° |
| 2026-04-28 20:34 | -19.57931 | -44.69300 | 18524 ft | 414 kts | 287° |
| 2026-04-28 20:34 | -19.57185 | -44.72252 | 18873 ft | 416 kts | 287° |
| 2026-04-28 20:35 | -19.56432 | -44.75219 | 19223 ft | 417 kts | 287° |
| 2026-04-28 20:35 | -19.55678 | -44.78187 | 19575 ft | 418 kts | 287° |
| 2026-04-28 20:35 | -19.54917 | -44.81175 | 19916 ft | 419 kts | 287° |
| 2026-04-28 20:35 | -19.54154 | -44.84176 | 20241 ft | 420 kts | 287° |
| 2026-04-28 20:36 | -19.53393 | -44.87175 | 20563 ft | 422 kts | 287° |
| 2026-04-28 20:36 | -19.52585 | -44.90136 | 20872 ft | 422 kts | 289° |
| 2026-04-28 20:36 | -19.51662 | -44.93098 | 21191 ft | 423 kts | 291° |
| 2026-04-28 20:36 | -19.50665 | -44.96042 | 21510 ft | 424 kts | 292° |
| 2026-04-28 20:37 | -19.49632 | -44.98988 | 21822 ft | 425 kts | 292° |
| 2026-04-28 20:37 | -19.48599 | -45.01933 | 22121 ft | 427 kts | 292° |
| 2026-04-28 20:37 | -19.47588 | -45.04854 | 22402 ft | 428 kts | 291° |
| 2026-04-28 20:37 | -19.46574 | -45.07838 | 22688 ft | 429 kts | 291° |
| 2026-04-28 20:38 | -19.45573 | -45.10830 | 22979 ft | 430 kts | 291° |
| 2026-04-28 20:38 | -19.44576 | -45.13835 | 23263 ft | 432 kts | 291° |
| 2026-04-28 20:38 | -19.43591 | -45.16809 | 23545 ft | 433 kts | 291° |
| 2026-04-28 20:38 | -19.42590 | -45.19829 | 23804 ft | 434 kts | 291° |
| 2026-04-28 20:39 | -19.41582 | -45.22859 | 24034 ft | 435 kts | 291° |
| 2026-04-28 20:39 | -19.40569 | -45.25891 | 24267 ft | 437 kts | 291° |
| 2026-04-28 20:39 | -19.39564 | -45.28890 | 24506 ft | 438 kts | 291° |
| 2026-04-28 20:39 | -19.38539 | -45.31944 | 24744 ft | 439 kts | 291° |
| 2026-04-28 20:40 | -19.37507 | -45.35007 | 24972 ft | 440 kts | 291° |
| 2026-04-28 20:40 | -19.36478 | -45.38066 | 25202 ft | 442 kts | 291° |
| 2026-04-28 20:40 | -19.35448 | -45.41142 | 25427 ft | 443 kts | 291° |
| 2026-04-28 20:40 | -19.34412 | -45.44236 | 25643 ft | 445 kts | 291° |
| 2026-04-28 20:41 | -19.33378 | -45.47318 | 25866 ft | 446 kts | 291° |
| 2026-04-28 20:41 | -19.32347 | -45.50384 | 26084 ft | 447 kts | 291° |
| 2026-04-28 20:41 | -19.31298 | -45.53492 | 26297 ft | 448 kts | 291° |
| 2026-04-28 20:41 | -19.30246 | -45.56608 | 26516 ft | 450 kts | 291° |
| 2026-04-28 20:42 | -19.29189 | -45.59740 | 26744 ft | 451 kts | 291° |
| 2026-04-28 20:42 | -19.28142 | -45.62844 | 26977 ft | 452 kts | 291° |
| 2026-04-28 20:42 | -19.27078 | -45.65991 | 27199 ft | 454 kts | 291° |
| 2026-04-28 20:42 | -19.26008 | -45.69148 | 27437 ft | 455 kts | 291° |
| 2026-04-28 20:43 | -19.24937 | -45.72314 | 27667 ft | 456 kts | 291° |
| 2026-04-28 20:43 | -19.23868 | -45.75484 | 27983 ft | 455 kts | 291° |
| 2026-04-28 20:43 | -19.22812 | -45.78619 | 28305 ft | 454 kts | 291° |
| 2026-04-28 20:43 | -19.21749 | -45.81771 | 28625 ft | 453 kts | 291° |
| 2026-04-28 20:44 | -19.20695 | -45.84894 | 28931 ft | 452 kts | 291° |
| 2026-04-28 20:44 | -19.19633 | -45.88031 | 29255 ft | 451 kts | 291° |
| 2026-04-28 20:44 | -19.18578 | -45.91132 | 29578 ft | 450 kts | 291° |
| 2026-04-28 20:44 | -19.17514 | -45.94249 | 29892 ft | 450 kts | 291° |
| 2026-04-28 20:45 | -19.16449 | -45.97370 | 30180 ft | 449 kts | 291° |
| 2026-04-28 20:45 | -19.15393 | -46.00476 | 30430 ft | 448 kts | 291° |
| 2026-04-28 20:45 | -19.14340 | -46.03582 | 30685 ft | 448 kts | 291° |
| 2026-04-28 20:45 | -19.13299 | -46.06652 | 30924 ft | 448 kts | 291° |
| 2026-04-28 20:46 | -19.12244 | -46.09753 | 31172 ft | 447 kts | 291° |
| 2026-04-28 20:46 | -19.11191 | -46.12853 | 31406 ft | 447 kts | 291° |
| 2026-04-28 20:46 | -19.10138 | -46.15948 | 31652 ft | 447 kts | 291° |
| 2026-04-28 20:46 | -19.09083 | -46.19043 | 31883 ft | 447 kts | 291° |
| 2026-04-28 20:47 | -19.08025 | -46.22138 | 32098 ft | 447 kts | 290° |
| 2026-04-28 20:47 | -19.06980 | -46.25201 | 32323 ft | 447 kts | 290° |
| 2026-04-28 20:47 | -19.05924 | -46.28296 | 32567 ft | 447 kts | 290° |
| 2026-04-28 20:47 | -19.04867 | -46.31393 | 32795 ft | 446 kts | 290° |
| 2026-04-28 20:48 | -19.03811 | -46.34485 | 33029 ft | 446 kts | 290° |
| 2026-04-28 20:48 | -19.02768 | -46.37542 | 33257 ft | 446 kts | 290° |
| 2026-04-28 20:48 | -19.01713 | -46.40630 | 33480 ft | 445 kts | 290° |
| 2026-04-28 20:48 | -19.00655 | -46.43723 | 33722 ft | 445 kts | 290° |
| 2026-04-28 20:49 | -18.99601 | -46.46799 | 33945 ft | 445 kts | 290° |
| 2026-04-28 20:49 | -18.97501 | -46.52934 | 34031 ft | 446 kts | 290° |
| 2026-04-28 20:50 | -18.95384 | -46.59093 | 34032 ft | 445 kts | 290° |
| 2026-04-28 20:50 | -18.93277 | -46.65239 | 34030 ft | 445 kts | 289° |
| 2026-04-28 20:51 | -18.91268 | -46.71435 | 34031 ft | 445 kts | 288° |
| 2026-04-28 20:51 | -18.89341 | -46.77608 | 34030 ft | 445 kts | 288° |
| 2026-04-28 20:52 | -18.87389 | -46.83822 | 34040 ft | 445 kts | 289° |
| 2026-04-28 20:52 | -18.85741 | -46.88982 | 34028 ft | 445 kts | 289° |
| 2026-04-28 20:53 | -18.82776 | -46.98245 | 34017 ft | 445 kts | 289° |
| 2026-04-28 20:53 | -18.80787 | -47.04447 | 34019 ft | 446 kts | 289° |
| 2026-04-28 20:54 | -18.78792 | -47.10663 | 34028 ft | 446 kts | 289° |
| 2026-04-28 20:54 | -18.76808 | -47.16840 | 34030 ft | 446 kts | 289° |
| 2026-04-28 20:55 | -18.74804 | -47.23070 | 34024 ft | 446 kts | 289° |
| 2026-04-28 20:55 | -18.72820 | -47.29237 | 34027 ft | 446 kts | 289° |
| 2026-04-28 20:56 | -18.70814 | -47.35449 | 34029 ft | 446 kts | 289° |
| 2026-04-28 20:56 | -18.68811 | -47.41647 | 34030 ft | 446 kts | 289° |
| 2026-04-28 20:57 | -18.66806 | -47.47856 | 34026 ft | 447 kts | 289° |
| 2026-04-28 20:57 | -18.64811 | -47.54028 | 34026 ft | 447 kts | 289° |
| 2026-04-28 20:58 | -18.62797 | -47.60242 | 34027 ft | 447 kts | 289° |
| 2026-04-28 20:58 | -18.60789 | -47.66422 | 34025 ft | 447 kts | 289° |
| 2026-04-28 20:59 | -18.58776 | -47.72611 | 34022 ft | 446 kts | 289° |
| 2026-04-28 20:59 | -18.56756 | -47.78814 | 34018 ft | 446 kts | 289° |
| 2026-04-28 21:00 | -18.54752 | -47.84973 | 34007 ft | 446 kts | 289° |
| 2026-04-28 21:00 | -18.52737 | -47.91168 | 34010 ft | 447 kts | 289° |
| 2026-04-28 21:01 | -18.50722 | -47.97358 | 34001 ft | 447 kts | 289° |
| 2026-04-28 21:01 | -18.48691 | -48.03563 | 34008 ft | 447 kts | 289° |
| 2026-04-28 21:02 | -18.46675 | -48.09718 | 34006 ft | 447 kts | 289° |
| 2026-04-28 21:02 | -18.44639 | -48.15932 | 34005 ft | 446 kts | 289° |
| 2026-04-28 21:03 | -18.42622 | -48.22073 | 34008 ft | 446 kts | 289° |
| 2026-04-28 21:03 | -18.40582 | -48.28263 | 33995 ft | 447 kts | 289° |
| 2026-04-28 21:04 | -18.38559 | -48.34426 | 33989 ft | 447 kts | 289° |
| 2026-04-28 21:04 | -18.36532 | -48.40624 | 33988 ft | 447 kts | 289° |
| 2026-04-28 21:05 | -18.34501 | -48.46798 | 33988 ft | 447 kts | 289° |
| 2026-04-28 21:05 | -18.32447 | -48.53007 | 33979 ft | 447 kts | 289° |
| 2026-04-28 21:06 | -18.30419 | -48.59156 | 33981 ft | 447 kts | 289° |
| 2026-04-28 21:06 | -18.28379 | -48.65348 | 33986 ft | 447 kts | 289° |
| 2026-04-28 21:07 | -18.26344 | -48.71494 | 33967 ft | 447 kts | 290° |
| 2026-04-28 21:07 | -18.24286 | -48.77693 | 33964 ft | 448 kts | 290° |
| 2026-04-28 21:08 | -18.22223 | -48.83893 | 33973 ft | 448 kts | 290° |
| 2026-04-28 21:08 | -18.20175 | -48.90057 | 33974 ft | 448 kts | 290° |
| 2026-04-28 21:09 | -18.18112 | -48.96250 | 33969 ft | 448 kts | 290° |
| 2026-04-28 21:09 | -18.16055 | -49.02422 | 33973 ft | 448 kts | 290° |
| 2026-04-28 21:10 | -18.13993 | -49.08600 | 33976 ft | 448 kts | 290° |
| 2026-04-28 21:10 | -18.11925 | -49.14787 | 33980 ft | 449 kts | 290° |
| 2026-04-28 21:11 | -18.09858 | -49.20980 | 33984 ft | 448 kts | 290° |
| 2026-04-28 21:11 | -18.07795 | -49.27144 | 33982 ft | 448 kts | 290° |
| 2026-04-28 21:12 | -18.05713 | -49.33342 | 33982 ft | 448 kts | 290° |
| 2026-04-28 21:12 | -18.03656 | -49.39485 | 33985 ft | 448 kts | 290° |
| 2026-04-28 21:13 | -18.01584 | -49.45655 | 33975 ft | 448 kts | 290° |
| 2026-04-28 21:13 | -17.99506 | -49.51823 | 33979 ft | 447 kts | 290° |
| 2026-04-28 21:14 | -17.97436 | -49.57989 | 33979 ft | 447 kts | 290° |
| 2026-04-28 21:14 | -17.95354 | -49.64152 | 33970 ft | 447 kts | 290° |
| 2026-04-28 21:15 | -17.93263 | -49.70321 | 33961 ft | 448 kts | 290° |
| 2026-04-28 21:15 | -17.91195 | -49.76456 | 33961 ft | 448 kts | 290° |
| 2026-04-28 21:16 | -17.89108 | -49.82646 | 33962 ft | 449 kts | 290° |
| 2026-04-28 21:16 | -17.87010 | -49.88841 | 33960 ft | 450 kts | 290° |
| 2026-04-28 21:17 | -17.84924 | -49.95004 | 33960 ft | 450 kts | 290° |
| 2026-04-28 21:17 | -17.82818 | -50.01199 | 33957 ft | 450 kts | 290° |
| 2026-04-28 21:18 | -17.80709 | -50.07400 | 33954 ft | 450 kts | 290° |
| 2026-04-28 21:18 | -17.78609 | -50.13562 | 33957 ft | 451 kts | 290° |
| 2026-04-28 21:19 | -17.76465 | -50.19749 | 33957 ft | 451 kts | 291° |
| 2026-04-28 21:19 | -17.74277 | -50.25912 | 33964 ft | 451 kts | 291° |
| 2026-04-28 21:20 | -17.72077 | -50.32093 | 33960 ft | 451 kts | 291° |
| 2026-04-28 21:20 | -17.69895 | -50.38274 | 33961 ft | 457 kts | 290° |
| 2026-04-28 21:21 | -17.67669 | -50.44574 | 33947 ft | 462 kts | 291° |
| 2026-04-28 21:21 | -17.65428 | -50.50886 | 33951 ft | 464 kts | 290° |
| 2026-04-28 21:22 | -17.63181 | -50.57257 | 33964 ft | 465 kts | 290° |
| 2026-04-28 21:22 | -17.61313 | -50.62532 | 33967 ft | 465 kts | 291° |
| 2026-04-28 21:23 | -17.58660 | -50.69944 | 33988 ft | 465 kts | 291° |
| 2026-04-28 21:23 | -17.56406 | -50.76262 | 33992 ft | 465 kts | 291° |
| 2026-04-28 21:24 | -17.54131 | -50.82639 | 33998 ft | 465 kts | 291° |
| 2026-04-28 21:24 | -17.51882 | -50.88967 | 34002 ft | 465 kts | 291° |
| 2026-04-28 21:25 | -17.49617 | -50.95334 | 34006 ft | 465 kts | 291° |
| 2026-04-28 21:25 | -17.47357 | -51.01678 | 34009 ft | 465 kts | 291° |
| 2026-04-28 21:26 | -17.45102 | -51.07979 | 34004 ft | 464 kts | 291° |
| 2026-04-28 21:26 | -17.42812 | -51.14333 | 34007 ft | 464 kts | 291° |
| 2026-04-28 21:27 | -17.40542 | -51.20638 | 34011 ft | 464 kts | 291° |
| 2026-04-28 21:27 | -17.38259 | -51.26989 | 34012 ft | 464 kts | 291° |
| 2026-04-28 21:28 | -17.35985 | -51.33322 | 34010 ft | 464 kts | 291° |
| 2026-04-28 21:28 | -17.33704 | -51.39605 | 34005 ft | 464 kts | 291° |
| 2026-04-28 21:29 | -17.31396 | -51.45942 | 34007 ft | 464 kts | 291° |
| 2026-04-28 21:29 | -17.29100 | -51.52256 | 34011 ft | 464 kts | 291° |
| 2026-04-28 21:30 | -17.26802 | -51.58574 | 34010 ft | 464 kts | 291° |
| 2026-04-28 21:30 | -17.24524 | -51.64859 | 34006 ft | 464 kts | 291° |
| 2026-04-28 21:31 | -17.22213 | -51.71197 | 34008 ft | 464 kts | 291° |
| 2026-04-28 21:31 | -17.19896 | -51.77511 | 34004 ft | 464 kts | 291° |
| 2026-04-28 21:32 | -17.17597 | -51.83800 | 34004 ft | 464 kts | 291° |
| 2026-04-28 21:32 | -17.15293 | -51.90126 | 34000 ft | 465 kts | 291° |
| 2026-04-28 21:33 | -17.12988 | -51.96434 | 33998 ft | 465 kts | 291° |
| 2026-04-28 21:33 | -17.10677 | -52.02728 | 33997 ft | 465 kts | 291° |
| 2026-04-28 21:34 | -17.08355 | -52.09054 | 33998 ft | 465 kts | 291° |
| 2026-04-28 21:34 | -17.06039 | -52.15374 | 33995 ft | 464 kts | 291° |
| 2026-04-28 21:35 | -17.03722 | -52.21679 | 33989 ft | 464 kts | 291° |
| 2026-04-28 21:35 | -17.01409 | -52.27944 | 33993 ft | 464 kts | 291° |
| 2026-04-28 21:36 | -16.99480 | -52.33176 | 33987 ft | 464 kts | 291° |
| 2026-04-28 21:36 | -16.97154 | -52.39472 | 33986 ft | 463 kts | 291° |
| 2026-04-28 21:37 | -16.94833 | -52.45752 | 33988 ft | 463 kts | 291° |
| 2026-04-28 21:37 | -16.92502 | -52.52033 | 33982 ft | 463 kts | 291° |
| 2026-04-28 21:38 | -16.90173 | -52.58297 | 33981 ft | 462 kts | 291° |
| 2026-04-28 21:38 | -16.87868 | -52.64537 | 33980 ft | 462 kts | 291° |
| 2026-04-28 21:39 | -16.85549 | -52.70808 | 33974 ft | 461 kts | 291° |
| 2026-04-28 21:39 | -16.83228 | -52.77054 | 33979 ft | 461 kts | 291° |
| 2026-04-28 21:40 | -16.80914 | -52.83277 | 33977 ft | 462 kts | 291° |
| 2026-04-28 21:40 | -16.78586 | -52.89527 | 33978 ft | 462 kts | 291° |
| 2026-04-28 21:41 | -16.76249 | -52.95794 | 33975 ft | 462 kts | 291° |
| 2026-04-28 21:41 | -16.73923 | -53.02008 | 33985 ft | 462 kts | 291° |
| 2026-04-28 21:42 | -16.71584 | -53.08276 | 33982 ft | 462 kts | 291° |
| 2026-04-28 21:42 | -16.69237 | -53.14521 | 33979 ft | 462 kts | 292° |
| 2026-04-28 21:43 | -16.66851 | -53.20720 | 33990 ft | 462 kts | 292° |
| 2026-04-28 21:43 | -16.64434 | -53.26936 | 33980 ft | 462 kts | 292° |
| 2026-04-28 21:44 | -16.62038 | -53.33146 | 33980 ft | 462 kts | 292° |
| 2026-04-28 21:44 | -16.59659 | -53.39349 | 33983 ft | 462 kts | 292° |
| 2026-04-28 21:45 | -16.57259 | -53.45578 | 33977 ft | 462 kts | 292° |
| 2026-04-28 21:45 | -16.54853 | -53.51797 | 33978 ft | 462 kts | 292° |
| 2026-04-28 21:46 | -16.52382 | -53.57995 | 33976 ft | 462 kts | 298° |
| 2026-04-28 21:46 | -16.48608 | -53.63327 | 33967 ft | 461 kts | 316° |
| 2026-04-28 21:47 | -16.43853 | -53.67844 | 33965 ft | 462 kts | 317° |
| 2026-04-28 21:47 | -16.39106 | -53.72336 | 33959 ft | 463 kts | 317° |
| 2026-04-28 21:48 | -16.34341 | -53.76875 | 33966 ft | 463 kts | 314° |
| 2026-04-28 21:48 | -16.30710 | -53.82317 | 33970 ft | 463 kts | 294° |
| 2026-04-28 21:49 | -16.28808 | -53.88741 | 33965 ft | 464 kts | 285° |
| 2026-04-28 21:49 | -16.27188 | -53.95254 | 33961 ft | 464 kts | 285° |
| 2026-04-28 21:50 | -16.25586 | -54.01723 | 33966 ft | 464 kts | 285° |
| 2026-04-28 21:50 | -16.23962 | -54.08229 | 33961 ft | 464 kts | 285° |
| 2026-04-28 21:51 | -16.22334 | -54.14753 | 33958 ft | 464 kts | 285° |
| 2026-04-28 21:51 | -16.20716 | -54.21203 | 33959 ft | 464 kts | 285° |
| 2026-04-28 21:52 | -16.19083 | -54.27711 | 33965 ft | 464 kts | 285° |
| 2026-04-28 21:52 | -16.17457 | -54.34219 | 33964 ft | 464 kts | 285° |
| 2026-04-28 21:53 | -16.15831 | -54.40712 | 33959 ft | 463 kts | 285° |
| 2026-04-28 21:53 | -16.14205 | -54.47158 | 33961 ft | 463 kts | 285° |
| 2026-04-28 21:54 | -16.12575 | -54.53633 | 33963 ft | 463 kts | 285° |
| 2026-04-28 21:54 | -16.10934 | -54.60129 | 33964 ft | 462 kts | 285° |
| 2026-04-28 21:55 | -16.09308 | -54.66577 | 33962 ft | 462 kts | 285° |
| 2026-04-28 21:55 | -16.07671 | -54.73062 | 33951 ft | 463 kts | 286° |
| 2026-04-28 21:56 | -16.06019 | -54.79553 | 33942 ft | 465 kts | 286° |
| 2026-04-28 21:56 | -16.04379 | -54.86030 | 33953 ft | 466 kts | 286° |
| 2026-04-28 21:57 | -16.02724 | -54.92570 | 33955 ft | 467 kts | 286° |
| 2026-04-28 21:57 | -16.01068 | -54.99086 | 33964 ft | 467 kts | 286° |
| 2026-04-28 21:58 | -15.99409 | -55.05602 | 33974 ft | 467 kts | 285° |
| 2026-04-28 21:58 | -15.97743 | -55.12150 | 33979 ft | 467 kts | 285° |
| 2026-04-28 21:59 | -15.95944 | -55.18609 | 33988 ft | 466 kts | 289° |
| 2026-04-28 22:00 | -15.92757 | -55.28126 | 33987 ft | 466 kts | 290° |
| 2026-04-28 22:00 | -15.90639 | -55.34472 | 33980 ft | 465 kts | 289° |
| 2026-04-28 22:01 | -15.88581 | -55.40864 | 33976 ft | 466 kts | 289° |
| 2026-04-28 22:01 | -15.86547 | -55.47229 | 33969 ft | 466 kts | 289° |
| 2026-04-28 22:02 | -15.84469 | -55.53634 | 33969 ft | 466 kts | 289° |
| 2026-04-28 22:02 | -15.82387 | -55.60003 | 33970 ft | 466 kts | 289° |
| 2026-04-28 22:03 | -15.80302 | -55.66374 | 33969 ft | 466 kts | 289° |
| 2026-04-28 22:03 | -15.78229 | -55.72710 | 33958 ft | 465 kts | 289° |
| 2026-04-28 22:04 | -15.76142 | -55.79083 | 33951 ft | 465 kts | 289° |
| 2026-04-28 22:04 | -15.74054 | -55.85451 | 33955 ft | 465 kts | 289° |
| 2026-04-28 22:05 | -15.71982 | -55.91773 | 33951 ft | 464 kts | 289° |
| 2026-04-28 22:05 | -15.69893 | -55.98121 | 33950 ft | 464 kts | 289° |
| 2026-04-28 22:06 | -15.67809 | -56.04463 | 33942 ft | 463 kts | 289° |
| 2026-04-28 22:06 | -15.65838 | -56.10805 | 33943 ft | 463 kts | 283° |
| 2026-04-28 22:07 | -15.65129 | -56.17468 | 33944 ft | 464 kts | 275° |
| 2026-04-28 22:07 | -15.64616 | -56.24112 | 33946 ft | 464 kts | 275° |
| 2026-04-28 22:08 | -15.64083 | -56.30802 | 33952 ft | 464 kts | 276° |
| 2026-04-28 22:08 | -15.63549 | -56.37501 | 33949 ft | 464 kts | 276° |
| 2026-04-28 22:09 | -15.63026 | -56.44142 | 33956 ft | 465 kts | 276° |
| 2026-04-28 22:09 | -15.62503 | -56.50843 | 33952 ft | 465 kts | 276° |
| 2026-04-28 22:10 | -15.61982 | -56.57490 | 33952 ft | 465 kts | 276° |
| 2026-04-28 22:10 | -15.61448 | -56.64196 | 33955 ft | 465 kts | 276° |
| 2026-04-28 22:11 | -15.60912 | -56.70859 | 33963 ft | 465 kts | 276° |
| 2026-04-28 22:11 | -15.60380 | -56.77526 | 33966 ft | 465 kts | 276° |
| 2026-04-28 22:12 | -15.59841 | -56.84232 | 33966 ft | 465 kts | 276° |
| 2026-04-28 22:12 | -15.59302 | -56.90885 | 33955 ft | 465 kts | 276° |
| 2026-04-28 22:13 | -15.58758 | -56.97603 | 33963 ft | 466 kts | 276° |
| 2026-04-28 22:13 | -15.58218 | -57.04300 | 33967 ft | 466 kts | 276° |
| 2026-04-28 22:14 | -15.57687 | -57.10984 | 33968 ft | 466 kts | 276° |
| 2026-04-28 22:14 | -15.57139 | -57.17714 | 33961 ft | 466 kts | 276° |
| 2026-04-28 22:15 | -15.56588 | -57.24404 | 33964 ft | 466 kts | 276° |
| 2026-04-28 22:15 | -15.56036 | -57.31086 | 33959 ft | 466 kts | 276° |
| 2026-04-28 22:16 | -15.55485 | -57.37798 | 33956 ft | 466 kts | 276° |
| 2026-04-28 22:16 | -15.54944 | -57.44470 | 33953 ft | 465 kts | 276° |
| 2026-04-28 22:17 | -15.54393 | -57.51163 | 33956 ft | 465 kts | 276° |
| 2026-04-28 22:17 | -15.53831 | -57.57842 | 33958 ft | 466 kts | 276° |
| 2026-04-28 22:18 | -15.53273 | -57.64562 | 33948 ft | 466 kts | 276° |
| 2026-04-28 22:18 | -15.52720 | -57.71219 | 33952 ft | 465 kts | 276° |
| 2026-04-28 22:19 | -15.52251 | -57.76770 | 33953 ft | 464 kts | 276° |
| 2026-04-28 22:19 | -15.51685 | -57.83437 | 33956 ft | 464 kts | 276° |
| 2026-04-28 22:20 | -15.51033 | -57.91207 | 33952 ft | 463 kts | 276° |
| 2026-04-28 22:20 | -15.50566 | -57.96759 | 33952 ft | 463 kts | 276° |
| 2026-04-28 22:21 | -15.49999 | -58.03388 | 33951 ft | 463 kts | 276° |
| 2026-04-28 22:21 | -15.49423 | -58.10043 | 33953 ft | 463 kts | 276° |
| 2026-04-28 22:22 | -15.48849 | -58.16713 | 33951 ft | 463 kts | 276° |
| 2026-04-28 22:22 | -15.48276 | -58.23374 | 33950 ft | 464 kts | 276° |
| 2026-04-28 22:23 | -15.47705 | -58.30031 | 33965 ft | 464 kts | 276° |
| 2026-04-28 22:23 | -15.47130 | -58.36690 | 33970 ft | 464 kts | 276° |
| 2026-04-28 22:24 | -15.46542 | -58.43344 | 33960 ft | 465 kts | 276° |
| 2026-04-28 22:24 | -15.45940 | -58.50031 | 33969 ft | 464 kts | 276° |
| 2026-04-28 22:25 | -15.45340 | -58.56703 | 33968 ft | 464 kts | 276° |
| 2026-04-28 22:25 | -15.44740 | -58.63378 | 33973 ft | 465 kts | 276° |
| 2026-04-28 22:26 | -15.44143 | -58.70044 | 33967 ft | 465 kts | 276° |
| 2026-04-28 22:26 | -15.43551 | -58.76712 | 33969 ft | 465 kts | 276° |
| 2026-04-28 22:27 | -15.42952 | -58.83391 | 33980 ft | 465 kts | 276° |
| 2026-04-28 22:27 | -15.42353 | -58.90065 | 33982 ft | 465 kts | 276° |
| 2026-04-28 22:28 | -15.41752 | -58.96761 | 33971 ft | 465 kts | 276° |
| 2026-04-28 22:28 | -15.41154 | -59.03436 | 33983 ft | 465 kts | 276° |
| 2026-04-28 22:29 | -15.40562 | -59.10096 | 33971 ft | 465 kts | 277° |
| 2026-04-28 22:29 | -15.39961 | -59.16770 | 33970 ft | 466 kts | 277° |
| 2026-04-28 22:30 | -15.39345 | -59.23445 | 33966 ft | 466 kts | 277° |
| 2026-04-28 22:30 | -15.38727 | -59.30141 | 33964 ft | 466 kts | 277° |
| 2026-04-28 22:31 | -15.38112 | -59.36846 | 33956 ft | 466 kts | 277° |
| 2026-04-28 22:31 | -15.37500 | -59.43507 | 33961 ft | 467 kts | 277° |
| 2026-04-28 22:32 | -15.36884 | -59.50213 | 33961 ft | 467 kts | 277° |
| 2026-04-28 22:32 | -15.36270 | -59.56885 | 33959 ft | 467 kts | 277° |
| 2026-04-28 22:33 | -15.35650 | -59.63589 | 33952 ft | 467 kts | 277° |
| 2026-04-28 22:33 | -15.35025 | -59.70315 | 33951 ft | 468 kts | 277° |
| 2026-04-28 22:34 | -15.34397 | -59.76998 | 33946 ft | 469 kts | 277° |
| 2026-04-28 22:34 | -15.33762 | -59.83750 | 33946 ft | 469 kts | 277° |
| 2026-04-28 22:35 | -15.33128 | -59.90486 | 33953 ft | 469 kts | 277° |
| 2026-04-28 22:35 | -15.32496 | -59.97187 | 33956 ft | 468 kts | 277° |
| 2026-04-28 22:36 | -15.31862 | -60.03898 | 33960 ft | 468 kts | 277° |
| 2026-04-28 22:36 | -15.31232 | -60.10622 | 33953 ft | 467 kts | 277° |
| 2026-04-28 22:37 | -15.30593 | -60.17287 | 33952 ft | 467 kts | 277° |
| 2026-04-28 22:37 | -15.31034 | -60.23971 | 33949 ft | 471 kts | 256° |
| 2026-04-28 22:37 | -15.32190 | -60.27167 | 33953 ft | 474 kts | 245° |
| 2026-04-28 22:38 | -15.33907 | -60.30072 | 33945 ft | 477 kts | 234° |
| 2026-04-28 22:38 | -15.38154 | -60.35395 | 33944 ft | 479 kts | 232° |
| 2026-04-28 22:39 | -15.42433 | -60.40693 | 33945 ft | 479 kts | 232° |
| 2026-04-28 22:39 | -15.46684 | -60.45976 | 33944 ft | 479 kts | 233° |
| 2026-04-28 22:40 | -15.50941 | -60.51279 | 33952 ft | 478 kts | 233° |
| 2026-04-28 22:40 | -15.55221 | -60.56556 | 33954 ft | 478 kts | 232° |
| 2026-04-28 22:41 | -15.59511 | -60.61846 | 33960 ft | 477 kts | 233° |
| 2026-04-28 22:41 | -15.63777 | -60.67117 | 33961 ft | 476 kts | 233° |
| 2026-04-28 22:42 | -15.68006 | -60.72357 | 33959 ft | 475 kts | 233° |
| 2026-04-28 22:42 | -15.72243 | -60.77605 | 33959 ft | 474 kts | 233° |
| 2026-04-28 22:43 | -15.76462 | -60.82831 | 33961 ft | 473 kts | 233° |
| 2026-04-28 22:43 | -15.80710 | -60.88093 | 33960 ft | 473 kts | 233° |
| 2026-04-28 22:44 | -15.84913 | -60.93302 | 33944 ft | 472 kts | 233° |
| 2026-04-28 22:44 | -15.89134 | -60.98520 | 33956 ft | 472 kts | 233° |
| 2026-04-28 22:45 | -15.93325 | -61.03740 | 33951 ft | 472 kts | 233° |
| 2026-04-28 22:45 | -15.97539 | -61.09003 | 33965 ft | 471 kts | 234° |
| 2026-04-28 22:46 | -16.01725 | -61.14232 | 33960 ft | 471 kts | 234° |
| 2026-04-28 22:46 | -16.05927 | -61.19463 | 33958 ft | 470 kts | 234° |
| 2026-04-28 22:47 | -16.10097 | -61.24661 | 33960 ft | 469 kts | 234° |
| 2026-04-28 22:47 | -16.14276 | -61.29872 | 33962 ft | 469 kts | 234° |
| 2026-04-28 22:48 | -16.18472 | -61.35102 | 33964 ft | 469 kts | 234° |
| 2026-04-28 22:48 | -16.22651 | -61.40295 | 33962 ft | 469 kts | 234° |
| 2026-04-28 22:49 | -16.26841 | -61.45520 | 33964 ft | 469 kts | 234° |
| 2026-04-28 22:49 | -16.31010 | -61.50753 | 33965 ft | 469 kts | 234° |
| 2026-04-28 22:50 | -16.35170 | -61.55969 | 33973 ft | 469 kts | 234° |
| 2026-04-28 22:50 | -16.39348 | -61.61198 | 33969 ft | 470 kts | 234° |
| 2026-04-28 22:51 | -16.43536 | -61.66437 | 33972 ft | 470 kts | 234° |
| 2026-04-28 22:51 | -16.47701 | -61.71676 | 33973 ft | 470 kts | 234° |
| 2026-04-28 22:52 | -16.51858 | -61.76891 | 33965 ft | 470 kts | 234° |
| 2026-04-28 22:52 | -16.56032 | -61.82124 | 33965 ft | 469 kts | 234° |
| 2026-04-28 22:53 | -16.60224 | -61.87344 | 33763 ft | 461 kts | 233° |
| 2026-04-28 22:53 | -16.62278 | -61.89881 | 33510 ft | 454 kts | 233° |
| 2026-04-28 22:53 | -16.64286 | -61.92373 | 33265 ft | 452 kts | 233° |
| 2026-04-28 22:53 | -16.66308 | -61.94888 | 33014 ft | 452 kts | 233° |
| 2026-04-28 22:54 | -16.68325 | -61.97401 | 32761 ft | 452 kts | 233° |
| 2026-04-28 22:54 | -16.70355 | -61.99931 | 32515 ft | 453 kts | 233° |
| 2026-04-28 22:54 | -16.72398 | -62.02472 | 31712 ft | 457 kts | 233° |
| 2026-04-28 22:54 | -16.74430 | -62.05006 | 30874 ft | 461 kts | 232° |
| 2026-04-28 22:55 | -16.76537 | -62.07534 | 29923 ft | 469 kts | 227° |
| 2026-04-28 22:55 | -16.79012 | -62.09811 | 28840 ft | 475 kts | 221° |
| 2026-04-28 22:55 | -16.81609 | -62.11974 | 28132 ft | 473 kts | 221° |
| 2026-04-28 22:55 | -16.84163 | -62.14110 | 27537 ft | 468 kts | 221° |
| 2026-04-28 22:56 | -16.86694 | -62.16230 | 26914 ft | 465 kts | 221° |
| 2026-04-28 22:56 | -16.89182 | -62.18314 | 26290 ft | 461 kts | 221° |
| 2026-04-28 22:56 | -16.91675 | -62.20406 | 25675 ft | 457 kts | 220° |
| 2026-04-28 22:56 | -16.94166 | -62.22498 | 25050 ft | 454 kts | 220° |
| 2026-04-28 22:57 | -16.96625 | -62.24569 | 24433 ft | 451 kts | 220° |
| 2026-04-28 22:57 | -16.99045 | -62.26602 | 23832 ft | 449 kts | 220° |
| 2026-04-28 22:57 | -17.01482 | -62.28644 | 23164 ft | 446 kts | 220° |
| 2026-04-28 22:57 | -17.03893 | -62.30663 | 22554 ft | 441 kts | 220° |
| 2026-04-28 22:58 | -17.06245 | -62.32631 | 21986 ft | 436 kts | 220° |
| 2026-04-28 22:58 | -17.08605 | -62.34612 | 21435 ft | 430 kts | 220° |
| 2026-04-28 22:58 | -17.10938 | -62.36569 | 20909 ft | 424 kts | 220° |
| 2026-04-28 22:58 | -17.13192 | -62.38469 | 20398 ft | 420 kts | 220° |
| 2026-04-28 22:59 | -17.15454 | -62.40381 | 19879 ft | 416 kts | 220° |
| 2026-04-28 22:59 | -17.17710 | -62.42283 | 19372 ft | 413 kts | 219° |
| 2026-04-28 22:59 | -17.19939 | -62.44162 | 18870 ft | 410 kts | 219° |
| 2026-04-28 22:59 | -17.22135 | -62.46015 | 18361 ft | 408 kts | 219° |
| 2026-04-28 23:00 | -17.24350 | -62.47885 | 17824 ft | 406 kts | 219° |
| 2026-04-28 23:00 | -17.26536 | -62.49730 | 17311 ft | 402 kts | 220° |
| 2026-04-28 23:00 | -17.28696 | -62.51557 | 16828 ft | 399 kts | 220° |
| 2026-04-28 23:00 | -17.30852 | -62.53376 | 16284 ft | 396 kts | 219° |
| 2026-04-28 23:01 | -17.32978 | -62.55162 | 15782 ft | 392 kts | 220° |
| 2026-04-28 23:01 | -17.35124 | -62.56968 | 15243 ft | 390 kts | 220° |
| 2026-04-28 23:01 | -17.37217 | -62.58733 | 14714 ft | 387 kts | 220° |
| 2026-04-28 23:01 | -17.39316 | -62.60505 | 14172 ft | 385 kts | 220° |
| 2026-04-28 23:02 | -17.40701 | -62.61673 | 13819 ft | 384 kts | 220° |
| 2026-04-28 23:02 | -17.42785 | -62.63427 | 13228 ft | 382 kts | 220° |
| 2026-04-28 23:02 | -17.45508 | -62.65720 | 12514 ft | 377 kts | 221° |
| 2026-04-28 23:02 | -17.47546 | -62.67439 | 11982 ft | 374 kts | 221° |
| 2026-04-28 23:03 | -17.48871 | -62.68557 | 11813 ft | 357 kts | 221° |
| 2026-04-28 23:03 | -17.50735 | -62.70126 | 11553 ft | 330 kts | 222° |
| 2026-04-28 23:03 | -17.52495 | -62.71618 | 11026 ft | 316 kts | 223° |
| 2026-04-28 23:03 | -17.54136 | -62.73007 | 10863 ft | 291 kts | 223° |
| 2026-04-28 23:04 | -17.55662 | -62.74296 | 10438 ft | 281 kts | 224° |
| 2026-04-28 23:04 | -17.58666 | -62.76843 | 9994 ft | 272 kts | 225° |
| 2026-04-28 23:04 | -17.60120 | -62.78078 | 9868 ft | 272 kts | 225° |
| 2026-04-28 23:05 | -17.61594 | -62.79331 | 9758 ft | 272 kts | 225° |
| 2026-04-28 23:05 | -17.63070 | -62.80585 | 9612 ft | 271 kts | 225° |
| 2026-04-28 23:05 | -17.64524 | -62.81819 | 9446 ft | 273 kts | 225° |
| 2026-04-28 23:05 | -17.66016 | -62.83091 | 9022 ft | 277 kts | 225° |
| 2026-04-28 23:06 | -17.67511 | -62.84360 | 8715 ft | 275 kts | 225° |
| 2026-04-28 23:06 | -17.68975 | -62.85594 | 8563 ft | 264 kts | 225° |
| 2026-04-28 23:06 | -17.70383 | -62.86780 | 8199 ft | 256 kts | 225° |
| 2026-04-28 23:06 | -17.71756 | -62.87939 | 7956 ft | 251 kts | 225° |
| 2026-04-28 23:07 | -17.73109 | -62.89087 | 7666 ft | 250 kts | 225° |
| 2026-04-28 23:07 | -17.74436 | -62.90217 | 7352 ft | 247 kts | 225° |
| 2026-04-28 23:07 | -17.75766 | -62.91351 | 6965 ft | 247 kts | 225° |
| 2026-04-28 23:07 | -17.76972 | -62.92622 | 6597 ft | 240 kts | 240° |
| 2026-04-28 23:08 | -17.77799 | -62.94089 | 6382 ft | 227 kts | 253° |
| 2026-04-28 23:08 | -17.78255 | -62.95622 | 6089 ft | 218 kts | 264° |
| 2026-04-28 23:08 | -17.78581 | -62.97185 | 5766 ft | 216 kts | 264° |
| 2026-04-28 23:08 | -17.78905 | -62.98706 | 5399 ft | 215 kts | 264° |
| 2026-04-28 23:09 | -17.79232 | -63.00213 | 5056 ft | 207 kts | 264° |
| 2026-04-28 23:09 | -17.79450 | -63.01629 | 5018 ft | 185 kts | 277° |
| 2026-04-28 23:09 | -17.79226 | -63.02853 | 5017 ft | 160 kts | 298° |
| 2026-04-28 23:09 | -17.78675 | -63.03823 | 4910 ft | 156 kts | 316° |
| 2026-04-28 23:10 | -17.77786 | -63.04503 | 4397 ft | 160 kts | 326° |
| 2026-04-28 23:10 | -17.76852 | -63.05172 | 3935 ft | 162 kts | 326° |
| 2026-04-28 23:10 | -17.75934 | -63.05807 | 3621 ft | 154 kts | 326° |
| 2026-04-28 23:10 | -17.75049 | -63.06411 | 3386 ft | 153 kts | 326° |
| 2026-04-28 23:11 | -17.74171 | -63.07005 | 3190 ft | 145 kts | 326° |
| 2026-04-28 23:11 | -17.73334 | -63.07570 | 2989 ft | 142 kts | 326° |
| 2026-04-28 23:11 | -17.72506 | -63.08128 | 2795 ft | 140 kts | 326° |
| 2026-04-28 23:11 | -17.71691 | -63.08678 | 2624 ft | 140 kts | 325° |
| 2026-04-28 23:12 | -17.70866 | -63.09233 | 2441 ft | 139 kts | 325° |
| 2026-04-28 23:12 | -17.70060 | -63.09776 | 2261 ft | 138 kts | 325° |
| 2026-04-28 23:12 | -17.69245 | -63.10325 | 2078 ft | 138 kts | 325° |
| 2026-04-28 23:12 | -17.68444 | -63.10864 | 1892 ft | 139 kts | 325° |
| 2026-04-28 23:13 | -17.67609 | -63.11426 | 1703 ft | 141 kts | 327° |
| 2026-04-28 23:13 | -17.66788 | -63.11983 | 1488 ft | 143 kts | 326° |
| 2026-04-28 23:13 | -17.65957 | -63.12547 | 1295 ft | 144 kts | 328° |
| 2026-04-28 23:13 | -17.65170 | -63.13075 | 1231 ft | 105 kts | 327° |
| 2026-04-28 23:14 | -17.64807 | -63.13318 | 1232 ft | 23 kts | 327° |
| 2026-04-28 23:14 | -17.64674 | -63.13405 | 1232 ft | 23 kts | 327° |
| 2026-04-28 23:14 | -17.64525 | -63.13504 | 1233 ft | 31 kts | 328° |
| 2026-04-28 23:14 | -17.64337 | -63.13631 | 1231 ft | 33 kts | 327° |
| 2026-04-28 23:15 | -17.64145 | -63.13761 | 1229 ft | 33 kts | 328° |
| 2026-04-28 23:15 | -17.63968 | -63.13878 | 1228 ft | 27 kts | 329° |
| 2026-04-28 23:15 | -17.63900 | -63.13989 | 1229 ft | 15 kts | 240° |
| 2026-04-28 23:15 | -17.63964 | -63.14073 | 1231 ft | 15 kts | 212° |
| 2026-04-28 23:16 | -17.64059 | -63.14051 | 1231 ft | 16 kts | 146° |
| 2026-04-28 23:16 | -17.64152 | -63.13988 | 1231 ft | 17 kts | 149° |
| 2026-04-28 23:16 | -17.64251 | -63.13920 | 1231 ft | 17 kts | 149° |
| 2026-04-28 23:16 | -17.64358 | -63.13856 | 1231 ft | 17 kts | 164° |
| 2026-04-28 23:17 | -17.64433 | -63.13919 | 1231 ft | 14 kts | 233° |
| 2026-04-28 23:17 | -17.64497 | -63.14006 | 1231 ft | 15 kts | 221° |
| 2026-04-28 23:17 | -17.64589 | -63.13988 | 1231 ft | 15 kts | 148° |
| 2026-04-28 23:17 | -17.64659 | -63.13989 | 1231 ft | 10 kts | 240° |
| 2026-04-28 23:18 | -17.64679 | -63.14022 | 1231 ft | 0 kts | 233° |
| 2026-04-28 23:18 | -17.64683 | -63.14027 | 1231 ft | 2 kts | 233° |
| 2026-04-28 23:18 | -17.64683 | -63.14028 | 1231 ft | 0 kts | 233° |